Airfield :
LOGIN :

Register | Disclaimer

   EN    FR    IT 

 










Legend :    VFR   Marginal VFR   IFR   Intensive IFR   Very Intensive IFR
Visi :
Ceiling :
>= 8 km
>= 3000ft
5 to 8 km
1000 to 3000 ft
1500m to 5 km
500 to 1000 ft
800 to 1500m
200 to 500 ft
< 800m
< 200 ft
Symbols :   Thunderstorms  Fog  Heavy snow  Heavy precipitations  Wind > 20 kt
SIGMETs :     Misc.  Thunderstorms  Icing  Turbulence  Mountain Waves  Volcanic Ashes







- Airport Elevation : 821 ft
- IATA code : LYS
- Download approach charts


LFLL - Lyon St Exupéry / Satolas

CURRENT METAR :
  • 182300Z 04003KT 8000 BKN030 03/00 Q1024 NOSIG

EXPIRED METARs :
  • 182230Z 36003KT 9999 BKN030 03/01 Q1024 NOSIG
  • 182200Z 34003KT 9999 BKN030 03/01 Q1024 NOSIG
  • 182130Z VRB02KT 9999 BKN030 03/01 Q1024 NOSIG
  • 182100Z 27001KT 9999 BKN030 03/00 Q1024 NOSIG
  • 182030Z 00000KT 9999 BKN030 03/M00 Q1025 NOSIG

TAF TAF LFLL
Valid from the 18 at 18:00 until the 20 at 00:00 UTC


181700Z 1818/1924 36010KT 9999 BKN025
BECMG 1819/1822 SCT030
PROB30
TEMPO 1822/1905 3000 BR
BECMG 1907/1910 36005KT OVC020
TEMPO 1911/1918 -RA BKN012
BECMG 1918/1921 4000 BR OVC005
TEMPO 1921/1924 1500 BR OVC002
No reported NOTAMs for that airfield.



MET'MAP, your aeronautical weather chart ! - Copyright ORBIFLY December 2007 - Disclaimer

ORBIFLY MET'MAP TEAM :

Programming & Development : Alexandra Zaïnal
Concept & Development : Baudouin d'Aumeries
Co-Development & Prog : Marc-Olivier Méhu
Technical & hardware support : Manuel Goepfert

Contact : metmap@orbifly.com




SOURCES & CREDITS :

   NOAA